createdAt,value
2022-11-14T00:01:41.264Z,17.73
2022-11-14T00:04:29.725Z,16.70
2022-11-14T00:07:16.815Z,17.67
2022-11-14T00:10:03.592Z,17.73
2022-11-14T00:12:50.122Z,18.20
2022-11-14T00:15:38.241Z,18.57
2022-11-14T00:18:25.430Z,17.47
2022-11-14T00:21:12.291Z,15.70
2022-11-14T00:23:58.923Z,15.03
2022-11-14T00:26:45.502Z,16.20
2022-11-14T00:29:32.205Z,16.97
2022-11-14T00:32:21.190Z,16.20
2022-11-14T00:35:09.372Z,16.73
2022-11-14T00:37:56.246Z,15.67
2022-11-14T00:40:43.288Z,18.00
2022-11-14T00:43:29.807Z,17.63
2022-11-14T00:46:16.832Z,16.50
2022-11-14T00:49:05.053Z,14.83
2022-11-14T00:51:51.899Z,18.13
2022-11-14T00:54:38.574Z,16.33
2022-11-14T00:57:25.386Z,15.00
2022-11-14T01:00:15.550Z,15.13
2022-11-14T01:03:02.592Z,15.03
2022-11-14T01:05:52.502Z,15.40
2022-11-14T01:08:39.282Z,14.67
2022-11-14T01:11:25.724Z,16.77
2022-11-14T01:14:12.381Z,15.50
2022-11-14T01:16:59.037Z,14.13
2022-11-14T01:19:45.782Z,14.80
2022-11-14T01:22:33.977Z,13.80
2022-11-14T01:25:20.871Z,13.57
2022-11-14T01:28:09.209Z,13.30
2022-11-14T01:30:55.705Z,12.90
2022-11-14T01:33:42.910Z,14.27
2022-11-14T01:36:30.173Z,11.97
2022-11-14T01:39:18.017Z,14.20
2022-11-14T01:42:04.661Z,13.33
2022-11-14T01:44:53.153Z,15.30
2022-11-14T01:47:40.489Z,15.23
2022-11-14T01:50:29.220Z,12.83
2022-11-14T01:53:16.161Z,14.63
2022-11-14T01:56:07.555Z,12.80
2022-11-14T01:58:59.963Z,14.87
2022-11-14T02:01:49.677Z,15.70
2022-11-14T02:04:42.214Z,14.83
2022-11-14T02:07:33.591Z,13.93
2022-11-14T02:10:22.801Z,14.43
2022-11-14T02:13:10.881Z,13.17
2022-11-14T02:15:57.418Z,12.20
2022-11-14T02:18:44.039Z,12.63
2022-11-14T02:21:31.985Z,13.80
2022-11-14T02:24:18.509Z,13.60
2022-11-14T02:27:07.230Z,12.90
2022-11-14T02:29:54.018Z,12.20
2022-11-14T02:32:57.355Z,12.03
2022-11-14T02:35:47.558Z,13.57
2022-11-14T02:38:35.477Z,12.43
2022-11-14T02:41:22.214Z,12.90
2022-11-14T02:44:08.901Z,12.10
2022-11-14T02:46:55.457Z,12.13
2022-11-14T02:49:42.372Z,12.17
2022-11-14T02:52:29.085Z,11.30
2022-11-14T02:55:17.135Z,11.50
2022-11-14T02:58:03.985Z,11.77
2022-11-14T03:01:18.519Z,12.33
2022-11-14T03:03:57.378Z,12.07
2022-11-14T03:06:44.237Z,11.50
2022-11-14T03:09:31.013Z,12.07
2022-11-14T03:12:20.260Z,11.53
2022-11-14T03:15:09.010Z,11.50
2022-11-14T03:17:55.553Z,11.03
2022-11-14T03:20:42.526Z,10.77
2022-11-14T03:23:29.247Z,11.80
2022-11-14T03:26:17.128Z,10.90
2022-11-14T03:29:05.389Z,12.70
2022-11-14T03:31:52.304Z,11.17
2022-11-14T03:34:39.284Z,11.80
2022-11-14T03:37:25.873Z,10.50
2022-11-14T03:40:13.325Z,10.83
2022-11-14T03:42:59.894Z,11.90
2022-11-14T03:45:48.389Z,10.40
2022-11-14T03:48:34.973Z,11.20
2022-11-14T03:51:21.962Z,11.50
2022-11-14T03:54:08.831Z,12.40
2022-11-14T03:56:55.628Z,12.63
2022-11-14T03:59:42.546Z,14.50
2022-11-14T04:02:30.360Z,19.63
2022-11-14T04:05:17.296Z,18.23
2022-11-14T04:08:06.495Z,16.90
2022-11-14T04:10:53.482Z,13.60
2022-11-14T04:13:40.202Z,13.63
2022-11-14T04:16:26.999Z,14.97
2022-11-14T04:19:14.842Z,14.60
2022-11-14T04:22:01.213Z,14.37
2022-11-14T04:24:48.011Z,11.80
2022-11-14T04:27:34.995Z,11.60
2022-11-14T04:30:21.520Z,12.80
2022-11-14T04:33:08.255Z,14.30
2022-11-14T04:35:56.522Z,12.40
2022-11-14T04:38:43.007Z,11.50
2022-11-14T04:41:29.357Z,12.40
2022-11-14T04:44:15.934Z,11.40
2022-11-14T04:47:02.420Z,11.87
2022-11-14T04:49:48.921Z,13.03
2022-11-14T04:52:37.150Z,12.30
2022-11-14T04:55:23.746Z,13.00
2022-11-14T04:58:10.582Z,12.23
2022-11-14T05:00:57.753Z,11.57
2022-11-14T05:03:45.139Z,11.30
2022-11-14T05:06:31.984Z,11.37
2022-11-14T05:09:20.189Z,9.63
2022-11-14T05:12:07.989Z,10.80
2022-11-14T05:14:54.886Z,11.87
2022-11-14T05:17:41.580Z,12.83
2022-11-14T05:20:28.198Z,10.90
2022-11-14T05:23:22.379Z,9.97
2022-11-14T05:26:13.430Z,10.30
2022-11-14T05:28:59.943Z,10.80
2022-11-14T05:31:46.556Z,11.07
2022-11-14T05:34:33.364Z,10.70
2022-11-14T05:37:19.911Z,10.20
2022-11-14T05:40:08.103Z,10.97
2022-11-14T05:42:57.918Z,10.40
2022-11-14T05:45:44.465Z,11.70
2022-11-14T05:48:32.839Z,9.23
2022-11-14T05:51:19.719Z,11.13
2022-11-14T05:54:07.080Z,10.80
2022-11-14T05:56:53.742Z,9.50
2022-11-14T05:59:42.087Z,10.93
2022-11-14T06:02:28.782Z,11.17
2022-11-14T06:05:15.522Z,10.67
2022-11-14T06:08:02.520Z,10.03
2022-11-14T06:10:49.171Z,10.50
2022-11-14T06:13:36.609Z,9.50
2022-11-14T06:16:25.274Z,9.97
2022-11-14T06:19:12.032Z,10.50
2022-11-14T06:21:58.628Z,11.63
2022-11-14T06:24:45.462Z,10.77
2022-11-14T06:27:31.899Z,11.30
2022-11-14T06:30:18.665Z,10.17
2022-11-14T06:33:06.874Z,10.20
2022-11-14T06:35:59.344Z,9.90
2022-11-14T06:38:46.414Z,10.73
2022-11-14T06:41:32.947Z,11.77
2022-11-14T06:44:19.557Z,11.50
2022-11-14T06:47:06.455Z,12.90
2022-11-14T06:49:54.303Z,12.50
2022-11-14T06:52:41.016Z,12.40
2022-11-14T06:55:27.500Z,12.60
2022-11-14T06:58:14.003Z,10.73
2022-11-14T07:01:06.022Z,10.20
2022-11-14T07:03:53.309Z,12.97
2022-11-14T07:06:44.586Z,11.83
2022-11-14T07:09:31.388Z,10.80
2022-11-14T07:12:26.094Z,11.60
2022-11-14T07:15:13.371Z,11.50
2022-11-14T07:18:00.552Z,10.43
2022-11-14T07:20:47.867Z,10.23
2022-11-14T07:23:37.767Z,10.63
2022-11-14T07:26:25.299Z,10.93
2022-11-14T07:29:12.007Z,9.70
2022-11-14T07:31:58.635Z,10.50
2022-11-14T07:34:45.218Z,11.33
2022-11-14T07:37:31.777Z,10.33
2022-11-14T07:40:20.387Z,11.90
2022-11-14T07:43:07.416Z,11.20
2022-11-14T07:45:54.088Z,11.27
2022-11-14T07:48:40.814Z,10.50
2022-11-14T07:51:27.571Z,10.07
2022-11-14T07:54:14.357Z,11.10
2022-11-14T07:57:02.547Z,10.70
2022-11-14T07:59:49.589Z,11.80
2022-11-14T08:02:36.435Z,9.60
2022-11-14T08:05:23.083Z,10.00
2022-11-14T08:08:09.882Z,9.70
2022-11-14T08:10:58.533Z,9.30
2022-11-14T08:13:46.427Z,9.77
2022-11-14T08:16:33.008Z,10.97
2022-11-14T08:19:19.590Z,11.47
2022-11-14T08:22:07.671Z,11.03
2022-11-14T08:24:54.437Z,9.97
2022-11-14T08:27:41.043Z,9.90
2022-11-14T08:30:29.711Z,11.17
2022-11-14T08:33:16.527Z,9.57
2022-11-14T08:36:03.450Z,13.27
2022-11-14T08:38:51.631Z,12.20
2022-11-14T08:41:38.603Z,11.90
2022-11-14T08:44:25.138Z,10.87
2022-11-14T08:47:13.534Z,12.13
2022-11-14T08:50:00.059Z,11.00
2022-11-14T08:52:51.953Z,13.03
2022-11-14T08:55:38.830Z,11.60
2022-11-14T08:58:25.475Z,13.00
2022-11-14T09:01:12.474Z,11.17
2022-11-14T09:04:01.499Z,12.50
2022-11-14T09:06:48.088Z,10.10
2022-11-14T09:09:34.834Z,12.10
2022-11-14T09:12:21.535Z,10.77
2022-11-14T09:15:09.494Z,9.77
2022-11-14T09:17:57.688Z,10.27
2022-11-14T09:20:46.417Z,7.90
2022-11-14T09:23:33.687Z,6.80
2022-11-14T09:26:20.612Z,6.53
2022-11-14T09:29:08.797Z,5.27
2022-11-14T09:31:56.794Z,6.20
2022-11-14T09:34:45.454Z,6.40
2022-11-14T09:37:33.703Z,6.40
2022-11-14T09:40:20.488Z,6.30
2022-11-14T09:43:34.868Z,5.77
2022-11-14T09:46:25.229Z,4.30
2022-11-14T09:49:25.052Z,2.90
2022-11-14T09:52:23.079Z,2.60
2022-11-14T09:55:19.502Z,2.50
2022-11-14T09:58:09.839Z,2.90
2022-11-14T10:01:08.942Z,2.83
2022-11-14T10:04:09.445Z,2.40
2022-11-14T10:07:06.858Z,2.40
2022-11-14T10:10:04.890Z,2.13
2022-11-14T10:13:09.634Z,3.50
2022-11-14T10:16:06.365Z,3.03
2022-11-14T10:19:11.043Z,3.80
2022-11-14T10:22:17.186Z,2.80
2022-11-14T10:25:23.717Z,3.07
2022-11-14T10:28:41.575Z,6.83
2022-11-14T10:31:45.372Z,5.17
2022-11-14T10:34:36.759Z,3.40
2022-11-14T10:37:30.741Z,3.80
2022-11-14T10:40:22.290Z,3.60
2022-11-14T10:43:22.670Z,3.73
2022-11-14T10:46:17.381Z,3.07
2022-11-14T10:49:15.658Z,3.93
2022-11-14T10:52:07.148Z,2.77
2022-11-14T10:55:00.344Z,3.13
2022-11-14T10:57:47.599Z,2.83
2022-11-14T11:00:34.414Z,3.13
2022-11-14T11:03:41.350Z,2.80
2022-11-14T11:06:29.297Z,3.00
2022-11-14T11:09:40.743Z,2.83
2022-11-14T11:12:45.969Z,3.13
2022-11-14T11:15:33.917Z,2.83
2022-11-14T11:18:33.719Z,2.90
2022-11-14T11:21:24.397Z,2.73
2022-11-14T11:24:11.405Z,2.40
2022-11-14T11:27:22.633Z,2.93
2022-11-14T11:30:20.357Z,2.73
2022-11-14T11:33:17.320Z,2.10
2022-11-14T11:36:11.811Z,2.40
2022-11-14T11:38:58.879Z,2.50
2022-11-14T11:45:00.289Z,1.80
2022-11-14T11:47:58.154Z,1.57
2022-11-14T11:50:45.007Z,2.17
2022-11-14T11:53:38.258Z,1.80
2022-11-14T11:56:31.466Z,1.60
2022-11-14T11:59:29.303Z,1.30
2022-11-14T12:02:24.613Z,1.73
2022-11-14T12:05:17.371Z,1.40
2022-11-14T12:08:07.513Z,1.60
2022-11-14T12:10:57.011Z,1.90
2022-11-14T12:14:03.899Z,1.60
2022-11-14T12:17:22.495Z,1.33
2022-11-14T12:20:58.279Z,1.33
2022-11-14T12:24:10.282Z,1.40
2022-11-14T12:27:19.397Z,1.30
2022-11-14T12:30:14.815Z,1.57
2022-11-14T12:33:06.424Z,1.33
2022-11-14T12:35:57.392Z,1.20
2022-11-14T12:38:47.555Z,1.10
2022-11-14T12:41:38.320Z,1.27
2022-11-14T12:44:37.474Z,1.20
2022-11-14T12:47:25.903Z,1.17
2022-11-14T12:50:40.889Z,1.20
2022-11-14T12:53:44.281Z,1.27
2022-11-14T12:57:09.677Z,1.53
2022-11-14T13:00:05.747Z,1.30
2022-11-14T13:03:37.463Z,0.90
2022-11-14T13:06:29.456Z,1.27
2022-11-14T13:09:42.677Z,1.23
2022-11-14T13:12:50.035Z,1.10
2022-11-14T13:16:08.906Z,1.37
2022-11-14T13:19:32.441Z,0.83
2022-11-14T13:22:37.909Z,1.17
2022-11-14T13:25:25.723Z,1.00
2022-11-14T13:28:48.507Z,1.47
2022-11-14T13:31:51.028Z,1.67
2022-11-14T13:34:51.269Z,1.10
2022-11-14T13:38:13.195Z,1.40
2022-11-14T13:41:46.218Z,1.23
2022-11-14T13:45:23.128Z,1.23
2022-11-14T13:49:03.861Z,1.60
2022-11-14T13:51:53.838Z,1.90
2022-11-14T13:54:47.640Z,1.40
2022-11-14T13:57:48.238Z,1.10
2022-11-14T14:01:03.969Z,1.23
2022-11-14T14:04:17.666Z,1.30
2022-11-14T14:07:15.577Z,1.40
2022-11-14T14:10:17.738Z,1.50
2022-11-14T14:13:20.453Z,1.70
2022-11-14T14:16:15.996Z,1.00
2022-11-14T14:19:13.551Z,1.33
2022-11-14T14:22:07.995Z,1.00
2022-11-14T14:25:06.147Z,2.47
2022-11-14T14:28:10.270Z,3.87
2022-11-14T14:31:05.947Z,2.33
2022-11-14T14:33:53.676Z,1.63
2022-11-14T14:36:51.608Z,1.57
2022-11-14T14:39:38.174Z,1.67
2022-11-14T14:42:28.395Z,3.00
2022-11-14T14:45:20.047Z,1.70
2022-11-14T14:48:15.032Z,2.07
2022-11-14T14:51:05.074Z,1.97
2022-11-14T14:53:54.462Z,1.80
2022-11-14T14:56:41.191Z,2.37
2022-11-14T14:59:30.174Z,1.83
2022-11-14T15:02:19.362Z,1.33
2022-11-14T15:05:07.626Z,2.20
2022-11-14T15:07:57.614Z,1.63
2022-11-14T15:10:46.300Z,1.50
2022-11-14T15:13:33.696Z,2.00
2022-11-14T15:16:21.712Z,1.70
2022-11-14T15:19:14.027Z,1.90
2022-11-14T15:22:05.614Z,2.23
2022-11-14T15:25:20.454Z,1.60
2022-11-14T15:28:18.156Z,2.10
2022-11-14T15:31:06.786Z,1.40
2022-11-14T15:34:05.546Z,1.47
2022-11-14T15:37:22.416Z,1.70
2022-11-14T15:40:19.860Z,2.03
2022-11-14T15:43:50.687Z,1.70
2022-11-14T15:46:43.980Z,1.90
2022-11-14T15:49:30.473Z,1.77
2022-11-14T15:52:24.263Z,1.90
2022-11-14T15:55:16.551Z,1.80
2022-11-14T16:01:21.985Z,1.77
2022-11-14T16:04:13.746Z,2.80
2022-11-14T16:07:01.007Z,2.80
2022-11-14T16:09:48.141Z,1.80
2022-11-14T16:12:34.760Z,1.70
2022-11-14T16:15:22.509Z,2.20
2022-11-14T16:18:12.795Z,1.70
2022-11-14T16:21:00.115Z,2.10
2022-11-14T16:23:46.834Z,2.23
2022-11-14T16:26:33.537Z,1.87
2022-11-14T16:29:20.359Z,1.77
2022-11-14T16:32:07.069Z,2.20
2022-11-14T16:34:55.364Z,1.60
2022-11-14T16:37:42.876Z,1.63
2022-11-14T16:40:30.136Z,2.00
2022-11-14T16:43:16.784Z,1.73
2022-11-14T16:46:05.903Z,2.13
2022-11-14T16:48:52.856Z,2.43
2022-11-14T16:51:47.988Z,2.60
2022-11-14T16:54:36.383Z,3.57
2022-11-14T16:57:23.263Z,4.20
2022-11-14T17:00:13.225Z,1.80
2022-11-14T17:03:00.141Z,2.27
2022-11-14T17:05:49.065Z,1.60
2022-11-14T17:08:37.223Z,2.00
2022-11-14T17:11:24.459Z,2.00
2022-11-14T17:14:11.393Z,2.33
2022-11-14T17:17:01.570Z,1.80
2022-11-14T17:19:48.044Z,2.07
2022-11-14T17:22:34.568Z,2.33
2022-11-14T17:25:22.705Z,2.07
2022-11-14T17:28:09.182Z,1.77
2022-11-14T17:30:55.858Z,5.60
2022-11-14T17:33:42.373Z,2.60
2022-11-14T17:36:31.496Z,2.37
2022-11-14T17:39:18.153Z,2.10
2022-11-14T17:42:07.270Z,2.20
2022-11-14T17:44:54.356Z,2.70
2022-11-14T17:47:40.935Z,4.07
2022-11-14T17:50:27.417Z,2.30
2022-11-14T17:53:14.258Z,1.90
2022-11-14T17:56:00.826Z,1.90
2022-11-14T17:58:51.870Z,2.17
2022-11-14T18:01:38.938Z,1.80
2022-11-14T18:04:26.177Z,2.47
2022-11-14T18:07:13.252Z,2.07
2022-11-14T18:09:59.973Z,2.40
2022-11-14T18:12:46.629Z,2.60
2022-11-14T18:15:34.587Z,2.27
2022-11-14T18:18:21.326Z,2.20
2022-11-14T18:21:10.066Z,2.23
2022-11-14T18:24:00.109Z,6.83
2022-11-14T18:26:46.685Z,2.30
2022-11-14T18:29:33.357Z,3.50
2022-11-14T18:32:21.325Z,3.73
2022-11-14T18:35:09.182Z,3.33
2022-11-14T18:37:55.952Z,2.77
2022-11-14T18:40:44.827Z,2.10
2022-11-14T18:43:33.271Z,2.10
2022-11-14T18:46:23.186Z,2.10
2022-11-14T18:49:11.709Z,2.23
2022-11-14T18:52:01.144Z,2.00
2022-11-14T18:54:52.341Z,1.90
2022-11-14T18:57:38.922Z,1.70
2022-11-14T19:00:25.639Z,2.03
2022-11-14T19:03:14.248Z,1.83
2022-11-14T19:06:05.181Z,2.20
2022-11-14T19:08:52.078Z,2.87
2022-11-14T19:11:56.961Z,2.00
2022-11-14T19:14:43.728Z,2.40
2022-11-14T19:17:30.332Z,1.90
2022-11-14T19:20:18.143Z,2.60
2022-11-14T19:23:05.937Z,2.63
2022-11-14T19:25:52.551Z,4.80
2022-11-14T19:28:39.292Z,3.50
2022-11-14T19:31:26.135Z,2.90
2022-11-14T19:34:13.057Z,2.70
2022-11-14T19:37:00.927Z,2.90
2022-11-14T19:39:52.319Z,3.07
2022-11-14T19:42:39.149Z,3.87
2022-11-14T19:45:25.590Z,3.83
2022-11-14T19:48:12.916Z,2.40
2022-11-14T19:51:01.957Z,2.80
2022-11-14T19:53:48.584Z,2.63
2022-11-14T19:56:36.377Z,2.60
2022-11-14T19:59:24.693Z,2.53
2022-11-14T20:02:14.122Z,4.97
2022-11-14T20:05:00.725Z,6.47
2022-11-14T20:07:48.347Z,3.60
2022-11-14T20:10:47.400Z,3.23
2022-11-14T20:13:38.214Z,3.20
2022-11-14T20:16:27.885Z,2.80
2022-11-14T20:19:15.999Z,3.10
2022-11-14T20:22:02.943Z,2.77
2022-11-14T20:24:49.876Z,4.30
2022-11-14T20:27:36.567Z,3.77
2022-11-14T20:30:25.033Z,2.50
2022-11-14T20:33:12.476Z,3.30
2022-11-14T20:36:03.805Z,3.10
2022-11-14T20:38:51.912Z,2.93
2022-11-14T20:41:38.898Z,2.10
2022-11-14T20:44:25.813Z,2.90
2022-11-14T20:47:14.270Z,2.57
2022-11-14T20:50:01.007Z,2.87
2022-11-14T20:52:47.933Z,2.67
2022-11-14T20:55:35.090Z,2.20
2022-11-14T20:58:21.828Z,2.80
2022-11-14T21:01:08.514Z,2.80
2022-11-14T21:03:56.659Z,2.53
2022-11-14T21:06:43.540Z,3.50
2022-11-14T21:09:30.200Z,3.50
2022-11-14T21:12:17.111Z,3.47
2022-11-14T21:15:04.058Z,3.90
2022-11-14T21:17:50.495Z,4.10
2022-11-14T21:20:38.415Z,5.20
2022-11-14T21:23:24.983Z,2.90
2022-11-14T21:26:14.762Z,4.10
2022-11-14T21:29:03.876Z,4.60
2022-11-14T21:31:50.721Z,3.93
2022-11-14T21:34:37.314Z,4.03
2022-11-14T21:37:25.263Z,3.83
2022-11-14T21:40:13.704Z,3.20
2022-11-14T21:43:00.313Z,3.10
2022-11-14T21:45:56.140Z,2.90
2022-11-14T21:48:43.414Z,3.20
2022-11-14T21:51:30.469Z,3.47
2022-11-14T21:54:18.584Z,3.97
2022-11-14T21:57:09.808Z,3.70
2022-11-14T21:59:57.226Z,3.50
2022-11-14T22:03:01.346Z,3.20
2022-11-14T22:05:48.043Z,3.17
2022-11-14T22:08:34.599Z,3.63
2022-11-14T22:11:24.343Z,2.40
2022-11-14T22:14:11.261Z,3.70
2022-11-14T22:16:58.800Z,2.90
2022-11-14T22:19:45.505Z,3.40
2022-11-14T22:22:32.947Z,3.90
2022-11-14T22:25:19.795Z,4.30
2022-11-14T22:28:08.016Z,7.43
2022-11-14T22:31:10.235Z,9.20
2022-11-14T22:33:59.351Z,4.20
2022-11-14T22:36:45.984Z,3.73
2022-11-14T22:39:32.619Z,2.87
2022-11-14T22:42:19.243Z,2.40
2022-11-14T22:45:09.646Z,2.77
2022-11-14T22:47:58.431Z,2.20
2022-11-14T22:50:44.975Z,3.00
2022-11-14T22:53:33.223Z,2.27
2022-11-14T22:56:22.419Z,3.00
2022-11-14T22:59:09.181Z,2.30
2022-11-14T23:01:57.683Z,2.67
2022-11-14T23:04:44.537Z,2.33
2022-11-14T23:07:30.950Z,2.53
2022-11-14T23:10:17.937Z,2.10
2022-11-14T23:13:04.454Z,2.57
2022-11-14T23:15:50.989Z,2.33
2022-11-14T23:18:39.724Z,1.90
2022-11-14T23:21:30.336Z,2.13
2022-11-14T23:28:54.666Z,2.57
2022-11-14T23:31:41.391Z,2.03
